createdAt,value
2022-09-25T00:03:03.833Z,13.48
2022-09-25T00:10:43.593Z,13.49
2022-09-25T00:18:37.832Z,13.47
2022-09-25T00:26:14.565Z,13.45
2022-09-25T00:33:48.186Z,13.43
2022-09-25T00:41:25.837Z,13.41
2022-09-25T00:49:03.631Z,13.38
2022-09-25T00:56:43.211Z,13.35
2022-09-25T01:04:18.314Z,13.34
2022-09-25T01:11:53.384Z,13.34
2022-09-25T01:19:43.177Z,13.26
2022-09-25T01:27:39.339Z,13.30
2022-09-25T01:35:20.620Z,13.28
2022-09-25T01:43:00.950Z,13.27
2022-09-25T01:50:42.600Z,13.19
2022-09-25T01:58:20.579Z,13.20
2022-09-25T02:05:59.139Z,13.18
2022-09-25T02:13:39.257Z,13.10
2022-09-25T02:21:22.219Z,13.06
2022-09-25T02:28:56.936Z,13.04
2022-09-25T02:36:32.385Z,13.03
2022-09-25T02:44:16.437Z,13.02
2022-09-25T02:52:01.270Z,12.96
2022-09-25T02:59:38.192Z,13.01
2022-09-25T03:07:13.390Z,13.00
2022-09-25T03:14:47.719Z,12.99
2022-09-25T03:22:22.760Z,13.00
2022-09-25T03:29:56.568Z,13.01
2022-09-25T03:37:32.310Z,12.98
2022-09-25T03:45:07.436Z,12.96
2022-09-25T03:52:42.315Z,12.82
2022-09-25T04:00:16.938Z,12.73
2022-09-25T04:07:52.009Z,12.58
2022-09-25T04:15:25.928Z,12.47
2022-09-25T04:23:01.047Z,12.43
2022-09-25T04:30:34.960Z,12.49
2022-09-25T04:38:13.666Z,12.47
2022-09-25T04:45:48.108Z,12.52
2022-09-25T04:53:23.972Z,12.56
2022-09-25T05:01:02.185Z,12.57
2022-09-25T05:08:37.228Z,12.56
2022-09-25T05:16:10.782Z,12.53
2022-09-25T05:23:45.837Z,12.51
2022-09-25T05:31:19.590Z,12.50
2022-09-25T05:38:54.816Z,12.51
2022-09-25T05:46:28.564Z,12.56
2022-09-25T05:54:03.698Z,12.54
2022-09-25T06:01:37.303Z,12.57
2022-09-25T06:09:12.311Z,12.65
2022-09-25T06:16:48.929Z,12.65
2022-09-25T06:24:24.249Z,12.66
2022-09-25T06:31:57.914Z,12.69
2022-09-25T06:39:33.936Z,12.73
2022-09-25T06:47:07.596Z,12.75
2022-09-25T06:54:44.375Z,12.83
2022-09-25T07:02:35.638Z,12.89
2022-09-25T07:10:10.914Z,12.88
2022-09-25T07:17:44.988Z,12.93
2022-09-25T07:25:20.066Z,13.02
2022-09-25T07:32:59.191Z,13.05
2022-09-25T07:40:35.537Z,13.18
2022-09-25T07:48:10.373Z,13.33
2022-09-25T07:55:45.720Z,13.38
2022-09-25T08:03:19.399Z,13.50
2022-09-25T08:10:55.342Z,13.65
2022-09-25T08:18:29.087Z,13.68
2022-09-25T08:26:04.383Z,13.83
2022-09-25T08:33:38.059Z,13.94
2022-09-25T08:41:19.145Z,14.05
2022-09-25T08:49:06.251Z,14.23
2022-09-25T08:56:41.457Z,14.28
2022-09-25T09:04:20.316Z,14.38
2022-09-25T09:12:01.994Z,14.45
2022-09-25T09:19:35.722Z,14.61
2022-09-25T09:27:26.949Z,14.78
2022-09-25T09:35:14.081Z,14.96
2022-09-25T09:42:59.733Z,15.17
2022-09-25T09:50:47.192Z,15.23
2022-09-25T09:58:30.252Z,15.33
2022-09-25T10:06:09.562Z,15.41
2022-09-25T10:13:45.731Z,15.49
2022-09-25T10:21:21.239Z,15.55
2022-09-25T10:28:57.825Z,15.71
2022-09-25T10:36:39.491Z,15.82
2022-09-25T10:44:24.633Z,15.92
2022-09-25T10:52:05.445Z,16.01
2022-09-25T10:59:41.480Z,16.09
2022-09-25T11:07:27.746Z,16.21
2022-09-25T11:15:05.829Z,16.35
2022-09-25T11:22:42.200Z,16.50
2022-09-25T11:30:19.844Z,16.63
2022-09-25T11:38:09.702Z,16.76
2022-09-25T11:45:49.717Z,16.91
2022-09-25T11:53:34.339Z,17.06
2022-09-25T12:01:22.639Z,17.21
2022-09-25T12:09:10.176Z,17.41
2022-09-25T12:16:53.274Z,17.73
2022-09-25T12:24:40.133Z,17.72
2022-09-25T12:32:27.313Z,17.82
2022-09-25T12:40:04.155Z,17.78
2022-09-25T12:47:45.954Z,17.82
2022-09-25T12:55:26.085Z,17.88
2022-09-25T13:03:12.398Z,17.88
2022-09-25T13:10:51.347Z,17.92
2022-09-25T13:18:29.375Z,17.95
2022-09-25T13:26:11.598Z,18.02
2022-09-25T13:33:50.467Z,18.13
2022-09-25T13:41:24.329Z,18.18
2022-09-25T13:49:35.493Z,18.13
2022-09-25T13:57:10.213Z,18.10
2022-09-25T14:04:48.616Z,18.07
2022-09-25T14:12:30.027Z,18.11
2022-09-25T14:20:11.207Z,18.13
2022-09-25T14:27:52.485Z,18.08
2022-09-25T14:35:36.971Z,17.99
2022-09-25T14:43:41.567Z,17.94
2022-09-25T14:51:25.667Z,17.96
2022-09-25T14:59:02.482Z,17.94
2022-09-25T15:06:39.277Z,17.92
2022-09-25T15:14:20.796Z,17.87
2022-09-25T15:21:55.920Z,17.76
2022-09-25T15:29:31.079Z,17.64
2022-09-25T15:37:18.803Z,17.61
2022-09-25T15:44:54.170Z,17.63
2022-09-25T15:52:34.020Z,17.63
2022-09-25T16:00:28.123Z,17.56
2022-09-25T16:08:29.263Z,17.46
2022-09-25T16:16:03.134Z,17.30
2022-09-25T16:23:40.006Z,17.17
2022-09-25T16:31:13.776Z,17.05
2022-09-25T16:39:14.525Z,17.00
2022-09-25T16:47:06.953Z,16.90
2022-09-25T16:54:42.580Z,16.84
2022-09-25T17:02:25.749Z,16.80
2022-09-25T17:10:01.649Z,16.74
2022-09-25T17:17:35.400Z,16.69
2022-09-25T17:25:22.060Z,16.61
2022-09-25T17:32:55.719Z,16.49
2022-09-25T17:40:33.277Z,16.41
2022-09-25T17:48:07.187Z,16.30
2022-09-25T17:55:42.264Z,16.19
2022-09-25T18:03:16.777Z,16.00
2022-09-25T18:10:54.659Z,15.93
2022-09-25T18:18:49.612Z,15.75
2022-09-25T18:26:29.062Z,15.69
2022-09-25T18:34:04.786Z,15.61
2022-09-25T18:41:42.017Z,15.60
2022-09-25T18:49:15.761Z,15.44
2022-09-25T18:56:51.201Z,15.39
2022-09-25T19:04:25.876Z,15.28
2022-09-25T19:12:01.106Z,15.24
2022-09-25T19:19:36.220Z,15.19
2022-09-25T19:27:12.091Z,15.11
2022-09-25T19:34:45.792Z,15.10
2022-09-25T19:42:21.147Z,15.07
2022-09-25T19:49:54.803Z,14.92
2022-09-25T19:57:29.970Z,14.87
2022-09-25T20:05:05.977Z,14.84
2022-09-25T20:12:41.127Z,14.81
2022-09-25T20:20:16.092Z,14.69
2022-09-25T20:27:52.173Z,14.58
2022-09-25T20:35:25.840Z,14.57
2022-09-25T20:43:00.945Z,14.54
2022-09-25T20:50:37.090Z,14.47
2022-09-25T20:58:11.918Z,14.27
2022-09-25T21:05:46.614Z,14.26
2022-09-25T21:13:21.890Z,14.20
2022-09-25T21:21:00.427Z,14.07
2022-09-25T21:28:35.495Z,13.98
2022-09-25T21:36:10.701Z,13.83
2022-09-25T21:43:46.114Z,13.79
2022-09-25T21:51:21.645Z,13.63
2022-09-25T21:58:57.814Z,13.61
2022-09-25T22:06:34.189Z,13.56
2022-09-25T22:14:15.417Z,13.51
2022-09-25T22:21:51.384Z,13.40
2022-09-25T22:29:26.520Z,13.35
2022-09-25T22:37:00.583Z,13.29
2022-09-25T22:44:35.732Z,13.24
2022-09-25T22:52:09.430Z,13.20
2022-09-25T22:59:44.442Z,13.14
2022-09-25T23:07:17.940Z,13.05
2022-09-25T23:14:53.980Z,13.06
2022-09-25T23:22:27.653Z,13.01
2022-09-25T23:30:02.702Z,12.98
2022-09-25T23:37:36.399Z,12.97
2022-09-25T23:45:12.866Z,12.92
2022-09-25T23:52:46.575Z,12.88
